createdAt,value
2019-03-21T00:01:51.761Z,7.30
2019-03-21T00:04:20.231Z,7.20
2019-03-21T00:06:48.518Z,7.10
2019-03-21T00:09:17.349Z,7.40
2019-03-21T00:12:20.040Z,7.30
2019-03-21T00:15:18.010Z,7.20
2019-03-21T00:17:50.214Z,7.10
2019-03-21T00:20:18.522Z,7.10
2019-03-21T00:22:46.891Z,6.90
2019-03-21T00:25:17.882Z,6.90
2019-03-21T00:27:46.250Z,6.30
2019-03-21T00:30:16.553Z,7.10
2019-03-21T00:32:44.674Z,7.00
2019-03-21T00:35:12.682Z,6.80
2019-03-21T00:37:40.814Z,6.60
2019-03-21T00:40:11.754Z,6.80
2019-03-21T00:42:39.763Z,6.70
2019-03-21T00:45:09.372Z,6.90
2019-03-21T00:47:37.698Z,7.00
2019-03-21T00:50:07.431Z,6.70
2019-03-21T00:52:35.411Z,6.90
2019-03-21T00:55:03.642Z,6.70
2019-03-21T00:57:32.552Z,6.80
2019-03-21T01:00:01.276Z,6.70
2019-03-21T01:02:29.314Z,6.80
2019-03-21T01:04:57.374Z,6.70
2019-03-21T01:07:25.696Z,6.50
2019-03-21T01:09:54.334Z,6.80
2019-03-21T01:12:22.739Z,7.00
2019-03-21T01:14:50.777Z,6.70
2019-03-21T01:17:19.316Z,6.70
2019-03-21T01:19:47.422Z,6.70
2019-03-21T01:22:15.963Z,6.60
2019-03-21T01:24:44.000Z,6.40
2019-03-21T01:27:12.638Z,6.50
2019-03-21T01:29:41.494Z,6.50
2019-03-21T01:32:10.690Z,6.50
2019-03-21T01:34:39.166Z,6.40
2019-03-21T01:37:07.526Z,6.50
2019-03-21T01:39:35.698Z,6.10
2019-03-21T01:42:04.149Z,6.00
2019-03-21T01:44:40.591Z,6.10
2019-03-21T01:47:02.455Z,5.70
2019-03-21T01:49:30.739Z,5.40
2019-03-21T01:51:59.514Z,5.50
2019-03-21T01:54:27.923Z,5.40
2019-03-21T01:56:56.188Z,5.40
2019-03-21T01:59:24.258Z,5.60
2019-03-21T02:01:53.267Z,5.40
2019-03-21T02:04:21.646Z,5.70
2019-03-21T02:06:49.745Z,5.40
2019-03-21T02:09:17.879Z,5.50
2019-03-21T02:11:45.966Z,5.50
2019-03-21T02:14:14.015Z,5.80
2019-03-21T02:16:42.142Z,5.60
2019-03-21T02:19:10.258Z,5.60
2019-03-21T02:21:38.266Z,5.70
2019-03-21T02:24:07.486Z,5.60
2019-03-21T02:26:35.797Z,5.80
2019-03-21T02:29:04.293Z,5.70
2019-03-21T02:31:32.686Z,5.70
2019-03-21T02:34:00.684Z,5.80
2019-03-21T02:36:29.405Z,5.80
2019-03-21T02:38:57.504Z,5.90
2019-03-21T02:41:25.973Z,5.90
2019-03-21T02:43:54.683Z,5.80
2019-03-21T02:46:23.280Z,5.90
2019-03-21T02:48:51.316Z,5.80
2019-03-21T02:51:19.546Z,5.60
2019-03-21T02:53:47.966Z,5.40
2019-03-21T02:56:16.932Z,5.00
2019-03-21T02:58:45.082Z,5.10
2019-03-21T03:01:13.229Z,5.30
2019-03-21T03:03:42.030Z,5.40
2019-03-21T03:06:10.377Z,5.20
2019-03-21T03:08:38.351Z,5.50
2019-03-21T03:11:10.315Z,5.60
2019-03-21T03:13:37.037Z,5.40
2019-03-21T03:16:05.066Z,5.50
2019-03-21T03:18:33.327Z,5.00
2019-03-21T03:21:01.387Z,5.60
2019-03-21T03:23:29.715Z,5.50
2019-03-21T03:25:57.722Z,5.50
2019-03-21T03:28:26.288Z,5.50
2019-03-21T03:30:54.863Z,5.10
2019-03-21T03:33:23.203Z,5.20
2019-03-21T03:35:51.288Z,5.30
2019-03-21T03:38:20.002Z,5.50
2019-03-21T03:40:51.232Z,5.40
2019-03-21T03:43:19.629Z,5.50
2019-03-21T03:45:47.783Z,5.30
2019-03-21T03:48:15.898Z,5.10
2019-03-21T03:50:43.944Z,5.20
2019-03-21T03:53:12.046Z,5.30
2019-03-21T03:55:40.213Z,5.00
2019-03-21T03:58:10.358Z,5.30
2019-03-21T04:00:38.661Z,5.40
2019-03-21T04:03:06.806Z,5.20
2019-03-21T04:05:35.922Z,5.30
2019-03-21T04:08:04.307Z,5.40
2019-03-21T04:10:34.547Z,5.20
2019-03-21T04:13:03.035Z,5.40
2019-03-21T04:15:31.743Z,5.50
2019-03-21T04:18:00.612Z,5.30
2019-03-21T04:20:30.492Z,5.00
2019-03-21T04:22:58.825Z,5.40
2019-03-21T04:25:33.215Z,5.00
2019-03-21T04:28:01.617Z,5.20
2019-03-21T04:30:30.024Z,5.20
2019-03-21T04:32:58.942Z,5.20
2019-03-21T04:35:27.696Z,5.30
2019-03-21T04:37:55.791Z,5.30
2019-03-21T04:40:24.107Z,5.00
2019-03-21T04:42:52.945Z,5.20
2019-03-21T04:45:21.063Z,5.20
2019-03-21T04:47:49.180Z,5.10
2019-03-21T04:50:23.194Z,4.70
2019-03-21T04:52:51.221Z,4.90
2019-03-21T04:55:19.997Z,4.70
2019-03-21T04:57:48.034Z,4.90
2019-03-21T05:00:18.939Z,4.50
2019-03-21T05:02:47.042Z,4.70
2019-03-21T05:05:15.439Z,4.70
2019-03-21T05:07:43.498Z,4.90
2019-03-21T05:10:12.833Z,4.90
2019-03-21T05:12:41.759Z,4.70
2019-03-21T05:15:12.858Z,4.90
2019-03-21T05:17:40.993Z,4.90
2019-03-21T05:20:14.580Z,4.70
2019-03-21T05:22:42.623Z,4.80
2019-03-21T05:25:11.029Z,5.10
2019-03-21T05:27:39.737Z,4.80
2019-03-21T05:30:11.639Z,5.00
2019-03-21T05:32:39.946Z,4.90
2019-03-21T05:35:08.090Z,4.60
2019-03-21T05:37:37.330Z,4.50
2019-03-21T05:40:07.162Z,4.50
2019-03-21T05:42:35.798Z,4.80
2019-03-21T05:45:04.399Z,4.50
2019-03-21T05:47:33.150Z,4.20
2019-03-21T05:50:01.278Z,4.50
2019-03-21T05:52:29.602Z,4.40
2019-03-21T05:54:58.214Z,4.90
2019-03-21T05:57:26.251Z,4.70
2019-03-21T05:59:55.848Z,4.80
2019-03-21T06:02:24.210Z,4.90
2019-03-21T06:04:52.548Z,4.60
2019-03-21T06:07:37.610Z,4.90
2019-03-21T06:10:08.342Z,4.60
2019-03-21T06:12:45.562Z,4.80
2019-03-21T06:15:15.906Z,4.60
2019-03-21T06:17:46.939Z,5.00
2019-03-21T06:20:59.936Z,4.70
2019-03-21T06:23:53.442Z,4.90
2019-03-21T06:26:47.160Z,5.20
2019-03-21T06:29:15.227Z,5.10
2019-03-21T06:31:43.706Z,4.60
2019-03-21T06:34:11.698Z,5.40
2019-03-21T06:36:40.483Z,5.30
2019-03-21T06:39:08.878Z,5.50
2019-03-21T06:41:37.087Z,5.50
2019-03-21T06:44:05.431Z,5.30
2019-03-21T06:46:35.038Z,5.40
2019-03-21T06:49:03.592Z,5.70
2019-03-21T06:51:31.995Z,5.80
2019-03-21T06:54:00.046Z,6.10
2019-03-21T06:56:28.235Z,6.00
2019-03-21T06:58:57.831Z,6.00
2019-03-21T07:01:26.198Z,6.20
2019-03-21T07:03:54.600Z,6.80
2019-03-21T07:06:23.877Z,6.60
2019-03-21T07:08:51.974Z,6.90
2019-03-21T07:11:20.978Z,7.60
2019-03-21T07:13:48.991Z,7.70
2019-03-21T07:16:17.671Z,7.90
2019-03-21T07:18:45.998Z,10.10
2019-03-21T07:21:14.056Z,13.00
2019-03-21T07:23:43.225Z,15.40
2019-03-21T07:26:11.594Z,17.10
2019-03-21T07:28:40.099Z,18.40
2019-03-21T07:31:08.189Z,19.20
2019-03-21T07:33:36.218Z,19.60
2019-03-21T07:36:05.673Z,20.40
2019-03-21T07:38:34.020Z,21.20
2019-03-21T07:41:02.122Z,21.50
2019-03-21T07:43:30.135Z,22.30
2019-03-21T07:45:58.333Z,23.30
2019-03-21T07:48:26.434Z,23.20
2019-03-21T07:50:54.435Z,22.80
2019-03-21T07:53:22.765Z,23.10
2019-03-21T07:55:51.503Z,24.20
2019-03-21T07:58:20.826Z,24.30
2019-03-21T08:00:49.803Z,24.10
2019-03-21T08:03:18.247Z,24.40
2019-03-21T08:05:46.307Z,25.20
2019-03-21T08:08:14.685Z,25.40
2019-03-21T08:10:42.968Z,25.80
2019-03-21T08:13:11.883Z,26.00
2019-03-21T08:15:40.178Z,26.00
2019-03-21T08:18:08.238Z,26.40
2019-03-21T08:20:37.003Z,26.50
2019-03-21T08:23:05.382Z,26.80
2019-03-21T08:25:34.294Z,26.10
2019-03-21T08:28:02.936Z,26.20
2019-03-21T08:30:33.894Z,26.70
2019-03-21T08:33:03.187Z,27.00
2019-03-21T08:35:31.404Z,26.80
2019-03-21T08:37:59.808Z,26.40
2019-03-21T08:40:28.174Z,26.90
2019-03-21T08:42:56.593Z,27.30
2019-03-21T08:45:25.721Z,26.90
2019-03-21T08:47:53.856Z,27.20
2019-03-21T08:50:21.854Z,27.50
2019-03-21T08:52:50.958Z,27.90
2019-03-21T08:55:19.203Z,28.50
2019-03-21T08:57:47.932Z,28.10
2019-03-21T09:00:16.146Z,27.70
2019-03-21T09:02:44.664Z,27.10
2019-03-21T09:05:13.020Z,27.30
2019-03-21T09:07:41.723Z,28.00
2019-03-21T09:10:09.971Z,28.20
2019-03-21T09:12:38.080Z,27.90
2019-03-21T09:15:08.181Z,28.10
2019-03-21T09:17:37.026Z,27.80
2019-03-21T09:20:05.759Z,27.60
2019-03-21T09:22:34.124Z,27.90
2019-03-21T09:25:04.726Z,27.30
2019-03-21T09:27:33.418Z,27.30
2019-03-21T09:30:01.851Z,27.00
2019-03-21T09:32:29.887Z,27.30
2019-03-21T09:34:59.120Z,27.90
2019-03-21T09:37:27.238Z,28.30
2019-03-21T09:39:55.577Z,28.30
2019-03-21T09:42:23.970Z,27.90
2019-03-21T09:44:52.530Z,27.90
2019-03-21T09:47:20.636Z,28.50
2019-03-21T09:49:48.626Z,29.00
2019-03-21T09:52:17.492Z,29.20
2019-03-21T09:54:46.602Z,29.30
2019-03-21T09:57:14.862Z,28.90
2019-03-21T09:59:42.961Z,28.60
2019-03-21T10:02:10.985Z,28.60
2019-03-21T10:04:39.494Z,28.40
2019-03-21T10:07:08.186Z,28.50
2019-03-21T10:09:36.456Z,28.40
2019-03-21T10:12:05.430Z,28.50
2019-03-21T10:14:34.395Z,28.50
2019-03-21T10:17:02.914Z,28.50
2019-03-21T10:19:31.210Z,28.40
2019-03-21T10:21:59.331Z,27.90
2019-03-21T10:24:27.833Z,27.60
2019-03-21T10:26:57.510Z,27.40
2019-03-21T10:29:26.694Z,27.50
2019-03-21T10:31:55.116Z,27.90
2019-03-21T10:34:24.323Z,28.10
2019-03-21T10:36:52.888Z,28.20
2019-03-21T10:39:22.159Z,28.10
2019-03-21T10:41:53.113Z,28.00
2019-03-21T10:44:21.816Z,28.70
2019-03-21T10:46:51.159Z,29.00
2019-03-21T10:49:19.134Z,29.00
2019-03-21T10:51:55.023Z,28.90
2019-03-21T10:54:18.192Z,29.10
2019-03-21T10:56:46.307Z,28.90
2019-03-21T10:59:14.726Z,28.70
2019-03-21T11:01:42.778Z,29.30
2019-03-21T11:04:13.603Z,29.60
2019-03-21T11:06:47.466Z,29.70
2019-03-21T11:09:17.975Z,29.80
2019-03-21T11:11:46.830Z,29.40
2019-03-21T11:14:14.973Z,28.40
2019-03-21T11:16:43.119Z,28.10
2019-03-21T11:19:11.614Z,28.30
2019-03-21T11:21:39.721Z,28.50
2019-03-21T11:24:07.843Z,29.00
2019-03-21T11:26:40.677Z,28.70
2019-03-21T11:29:09.603Z,28.30
2019-03-21T11:31:37.983Z,27.90
2019-03-21T11:34:06.342Z,28.20
2019-03-21T11:36:38.619Z,28.50
2019-03-21T11:39:06.794Z,29.00
2019-03-21T11:41:35.148Z,28.60
2019-03-21T11:44:03.964Z,28.70
2019-03-21T11:46:32.053Z,29.00
2019-03-21T11:49:01.246Z,29.40
2019-03-21T11:51:30.619Z,29.60
2019-03-21T11:53:58.751Z,29.40
2019-03-21T11:56:27.921Z,29.30
2019-03-21T11:58:56.079Z,29.40
2019-03-21T12:01:24.475Z,29.00
2019-03-21T12:03:53.588Z,29.20
2019-03-21T12:06:22.351Z,29.40
2019-03-21T12:08:51.324Z,29.50
2019-03-21T12:11:21.303Z,29.60
2019-03-21T12:13:49.337Z,29.50
2019-03-21T12:16:17.467Z,29.30
2019-03-21T12:18:45.749Z,28.80
2019-03-21T12:21:14.826Z,28.50
2019-03-21T12:23:45.014Z,28.70
2019-03-21T12:26:13.297Z,29.10
2019-03-21T12:28:41.392Z,28.50
2019-03-21T12:31:09.569Z,28.60
2019-03-21T12:33:41.027Z,28.60
2019-03-21T12:36:11.378Z,28.00
2019-03-21T12:38:39.508Z,27.80
2019-03-21T12:41:07.947Z,27.90
2019-03-21T12:43:38.186Z,27.60
2019-03-21T12:46:06.539Z,27.70
2019-03-21T12:48:34.690Z,27.80
2019-03-21T12:51:02.790Z,27.70
2019-03-21T12:53:32.196Z,27.20
2019-03-21T12:56:00.903Z,26.70
2019-03-21T12:58:29.212Z,26.60
2019-03-21T13:00:57.990Z,27.10
2019-03-21T13:03:25.990Z,27.10
2019-03-21T13:05:54.310Z,27.10
2019-03-21T13:08:33.331Z,26.90
2019-03-21T13:10:52.943Z,25.90
2019-03-21T13:13:21.408Z,25.90
2019-03-21T13:15:50.126Z,25.20
2019-03-21T13:18:18.620Z,24.40
2019-03-21T13:20:47.038Z,24.60
2019-03-21T13:23:15.219Z,25.00
2019-03-21T13:25:44.011Z,25.30
2019-03-21T13:28:14.020Z,25.30
2019-03-21T13:30:42.373Z,25.20
2019-03-21T13:33:10.522Z,25.10
2019-03-21T13:35:38.687Z,25.10
2019-03-21T13:38:07.981Z,24.70
2019-03-21T13:40:36.842Z,24.50
2019-03-21T13:43:05.397Z,24.40
2019-03-21T13:45:33.919Z,24.00
2019-03-21T13:48:02.019Z,23.50
2019-03-21T13:50:30.354Z,23.50
2019-03-21T13:53:04.954Z,23.30
2019-03-21T13:55:29.050Z,23.50
2019-03-21T13:58:00.340Z,23.50
2019-03-21T14:00:28.669Z,23.30
2019-03-21T14:02:57.117Z,23.10
2019-03-21T14:05:25.652Z,22.90
2019-03-21T14:07:54.755Z,22.90
2019-03-21T14:10:23.387Z,22.50
2019-03-21T14:12:52.047Z,22.30
2019-03-21T14:15:22.617Z,22.20
2019-03-21T14:17:51.468Z,21.80
2019-03-21T14:20:19.945Z,21.70
2019-03-21T14:22:48.093Z,21.20
2019-03-21T14:25:17.034Z,21.20
2019-03-21T14:27:45.467Z,21.20
2019-03-21T14:30:14.650Z,20.70
2019-03-21T14:32:43.203Z,20.60
2019-03-21T14:35:12.543Z,20.60
2019-03-21T14:37:40.885Z,20.70
2019-03-21T14:40:09.783Z,20.80
2019-03-21T14:42:38.886Z,20.70
2019-03-21T14:45:07.596Z,20.50
2019-03-21T14:47:36.451Z,19.90
2019-03-21T14:50:06.204Z,19.90
2019-03-21T14:52:34.806Z,19.90
2019-03-21T14:55:02.975Z,19.60
2019-03-21T14:57:31.359Z,19.60
2019-03-21T15:00:01.063Z,19.40
2019-03-21T15:02:29.134Z,19.60
2019-03-21T15:04:57.406Z,19.40
2019-03-21T15:07:25.872Z,19.40
2019-03-21T15:10:14.951Z,19.30
2019-03-21T15:12:43.122Z,19.30
2019-03-21T15:15:11.962Z,19.10
2019-03-21T15:17:40.093Z,19.60
2019-03-21T15:20:10.039Z,19.70
2019-03-21T15:22:38.382Z,19.60
2019-03-21T15:25:07.504Z,19.50
2019-03-21T15:27:35.579Z,19.30
2019-03-21T15:30:05.470Z,19.00
2019-03-21T15:32:34.835Z,19.10
2019-03-21T15:35:05.672Z,18.80
2019-03-21T15:37:34.639Z,18.60
2019-03-21T15:40:03.488Z,18.50
2019-03-21T15:42:34.787Z,18.60
2019-03-21T15:45:20.575Z,18.40
2019-03-21T15:47:34.430Z,18.60
2019-03-21T15:50:02.724Z,18.40
2019-03-21T15:52:31.363Z,18.80
2019-03-21T15:54:59.859Z,18.60
2019-03-21T15:57:28.454Z,18.70
2019-03-21T15:59:56.823Z,18.80
2019-03-21T16:02:24.826Z,18.60
2019-03-21T16:04:53.452Z,18.50
2019-03-21T16:07:21.891Z,18.70
2019-03-21T16:09:50.385Z,18.60
2019-03-21T16:12:19.711Z,18.50
2019-03-21T16:14:49.390Z,18.40
2019-03-21T16:17:17.602Z,18.50
2019-03-21T16:19:45.699Z,18.30
2019-03-21T16:22:14.790Z,18.20
2019-03-21T16:24:43.557Z,17.70
2019-03-21T16:27:12.470Z,17.80
2019-03-21T16:29:40.893Z,17.80
2019-03-21T16:32:09.279Z,17.90
2019-03-21T16:34:37.636Z,17.90
2019-03-21T16:37:06.055Z,17.70
2019-03-21T16:39:34.144Z,17.50
2019-03-21T16:42:02.120Z,17.70
2019-03-21T16:44:30.910Z,17.10
2019-03-21T16:46:59.351Z,17.30
2019-03-21T16:49:27.818Z,17.30
2019-03-21T16:51:58.390Z,17.30
2019-03-21T16:54:26.471Z,17.00
2019-03-21T16:56:55.047Z,17.10
2019-03-21T16:59:23.459Z,17.00
2019-03-21T17:01:53.318Z,16.80
2019-03-21T17:04:23.242Z,17.00
2019-03-21T17:06:51.691Z,16.90
2019-03-21T17:09:20.154Z,16.60
2019-03-21T17:11:49.139Z,16.40
2019-03-21T17:14:17.565Z,16.80
2019-03-21T17:16:46.279Z,16.30
2019-03-21T17:19:14.327Z,16.40
2019-03-21T17:21:42.438Z,16.20
2019-03-21T17:24:10.822Z,16.10
2019-03-21T17:26:39.154Z,16.30
2019-03-21T17:29:07.441Z,16.10
2019-03-21T17:31:35.835Z,15.80
2019-03-21T17:34:04.274Z,15.60
2019-03-21T17:36:32.931Z,15.60
2019-03-21T17:39:01.567Z,15.50
2019-03-21T17:41:30.118Z,15.40
2019-03-21T17:43:58.396Z,15.40
2019-03-21T17:46:26.750Z,14.90
2019-03-21T17:48:55.008Z,14.90
2019-03-21T17:51:23.062Z,14.90
2019-03-21T17:53:51.061Z,14.70
2019-03-21T17:56:19.156Z,14.60
2019-03-21T17:58:48.041Z,14.70
2019-03-21T18:01:16.495Z,14.70
2019-03-21T18:03:44.503Z,14.60
2019-03-21T18:06:12.503Z,14.20
2019-03-21T18:08:41.334Z,14.50
2019-03-21T18:11:10.523Z,14.50
2019-03-21T18:13:38.560Z,14.30
2019-03-21T18:16:06.936Z,14.30
2019-03-21T18:18:35.305Z,14.20
2019-03-21T18:21:03.462Z,13.80
2019-03-21T18:23:31.909Z,13.50
2019-03-21T18:26:00.065Z,14.10
2019-03-21T18:28:28.734Z,13.80
2019-03-21T18:30:57.271Z,13.80
2019-03-21T18:33:41.454Z,13.90
2019-03-21T18:36:09.862Z,13.80
2019-03-21T18:38:38.510Z,13.90
2019-03-21T18:41:06.651Z,13.70
2019-03-21T18:43:35.070Z,13.70
2019-03-21T18:46:03.821Z,13.70
2019-03-21T18:48:32.223Z,13.60
2019-03-21T18:51:00.947Z,13.80
2019-03-21T18:53:29.551Z,13.70
2019-03-21T18:55:58.063Z,13.30
2019-03-21T18:58:26.086Z,13.50
2019-03-21T19:00:54.420Z,13.30
2019-03-21T19:03:22.454Z,13.60
2019-03-21T19:05:50.510Z,13.20
2019-03-21T19:08:18.862Z,13.20
2019-03-21T19:10:47.274Z,13.20
2019-03-21T19:13:15.344Z,13.20
2019-03-21T19:15:43.738Z,12.80
2019-03-21T19:18:12.095Z,12.90
2019-03-21T19:20:40.722Z,13.00
2019-03-21T19:23:09.140Z,13.00
2019-03-21T19:25:37.519Z,13.00
2019-03-21T19:28:05.919Z,12.90
2019-03-21T19:30:34.444Z,12.70
2019-03-21T19:33:02.667Z,12.80
2019-03-21T19:35:30.852Z,12.80
2019-03-21T19:37:58.835Z,12.70
2019-03-21T19:40:26.894Z,12.60
2019-03-21T19:42:55.248Z,12.60
2019-03-21T19:45:23.812Z,12.90
2019-03-21T19:47:52.097Z,12.50
2019-03-21T19:50:20.439Z,12.30
2019-03-21T19:52:48.859Z,12.60
2019-03-21T19:55:25.904Z,12.60
2019-03-21T19:57:47.890Z,12.40
2019-03-21T20:00:17.445Z,12.20
2019-03-21T20:02:46.297Z,12.40
2019-03-21T20:05:14.947Z,12.60
2019-03-21T20:07:43.270Z,12.40
2019-03-21T20:10:11.791Z,12.60
2019-03-21T20:12:39.815Z,12.20
2019-03-21T20:15:08.231Z,12.30
2019-03-21T20:17:36.286Z,12.20
2019-03-21T20:20:05.351Z,12.00
2019-03-21T20:22:33.706Z,12.20
2019-03-21T20:25:02.040Z,12.10
2019-03-21T20:27:30.205Z,12.20
2019-03-21T20:29:58.250Z,12.20
2019-03-21T20:32:26.371Z,12.10
2019-03-21T20:34:54.546Z,11.70
2019-03-21T20:37:22.636Z,11.90
2019-03-21T20:39:51.234Z,11.70
2019-03-21T20:42:19.578Z,11.90
2019-03-21T20:44:48.228Z,12.00
2019-03-21T20:47:16.367Z,11.70
2019-03-21T20:49:44.699Z,11.50
2019-03-21T20:52:12.818Z,11.90
2019-03-21T20:54:40.819Z,11.80
2019-03-21T20:57:09.146Z,11.60
2019-03-21T20:59:37.549Z,11.70
2019-03-21T21:02:05.859Z,11.50
2019-03-21T21:04:34.134Z,11.70
2019-03-21T21:07:02.594Z,11.70
2019-03-21T21:09:30.638Z,11.40
2019-03-21T21:11:58.651Z,11.50
2019-03-21T21:14:26.683Z,11.70
2019-03-21T21:16:55.298Z,11.40
2019-03-21T21:19:23.638Z,11.40
2019-03-21T21:21:51.674Z,11.40
2019-03-21T21:24:19.706Z,11.30
2019-03-21T21:26:48.138Z,11.30
2019-03-21T21:29:16.550Z,11.10
2019-03-21T21:31:44.864Z,11.40
2019-03-21T21:34:12.963Z,11.20
2019-03-21T21:36:40.974Z,11.30
2019-03-21T21:39:09.071Z,11.20
2019-03-21T21:41:37.410Z,11.30
2019-03-21T21:44:05.435Z,11.40
2019-03-21T21:46:33.626Z,11.10
2019-03-21T21:49:02.105Z,11.10
2019-03-21T21:51:30.498Z,11.20
2019-03-21T21:53:58.823Z,11.10
2019-03-21T21:56:27.114Z,11.20
2019-03-21T21:58:55.250Z,11.10
2019-03-21T22:01:23.236Z,11.20
2019-03-21T22:04:03.854Z,11.00
2019-03-21T22:06:22.129Z,11.20
2019-03-21T22:08:50.503Z,11.10
2019-03-21T22:11:18.797Z,11.00
2019-03-21T22:13:47.103Z,11.00
2019-03-21T22:16:15.694Z,11.10
2019-03-21T22:18:44.384Z,11.10
2019-03-21T22:21:12.538Z,11.20
2019-03-21T22:23:40.702Z,11.10
2019-03-21T22:26:09.279Z,11.30
2019-03-21T22:28:38.390Z,11.20
2019-03-21T22:31:06.490Z,11.20
2019-03-21T22:33:34.863Z,11.20
2019-03-21T22:36:02.951Z,10.90
2019-03-21T22:38:31.413Z,10.70
2019-03-21T22:41:00.135Z,10.90
2019-03-21T22:43:28.795Z,10.70
2019-03-21T22:45:56.827Z,10.60
2019-03-21T22:48:25.082Z,10.60
2019-03-21T22:50:53.398Z,10.40
2019-03-21T22:53:22.140Z,10.60
2019-03-21T22:55:50.246Z,10.50
2019-03-21T22:58:18.322Z,10.20
2019-03-21T23:00:48.103Z,10.40
2019-03-21T23:03:16.143Z,10.40
2019-03-21T23:05:44.550Z,10.30
2019-03-21T23:08:12.995Z,10.30
2019-03-21T23:10:41.667Z,10.20
2019-03-21T23:13:09.770Z,10.30
2019-03-21T23:15:37.757Z,10.30
2019-03-21T23:18:06.490Z,10.30
2019-03-21T23:20:34.839Z,10.20
2019-03-21T23:23:02.833Z,10.10
2019-03-21T23:25:31.126Z,10.10
2019-03-21T23:27:59.479Z,10.00
2019-03-21T23:30:27.490Z,10.00
2019-03-21T23:32:56.256Z,10.00
2019-03-21T23:35:24.360Z,10.10
2019-03-21T23:37:52.426Z,10.20
2019-03-21T23:40:20.467Z,9.80
2019-03-21T23:42:48.871Z,10.00
2019-03-21T23:45:19.849Z,10.10
2019-03-21T23:47:47.217Z,10.20
2019-03-21T23:50:15.848Z,10.20
2019-03-21T23:52:44.295Z,9.90
2019-03-21T23:55:12.534Z,10.00
2019-03-21T23:57:40.826Z,10.00
